createdAt,value
2023-04-27T00:01:14.887Z,3.55
2023-04-27T00:03:42.411Z,3.85
2023-04-27T00:06:09.854Z,4.00
2023-04-27T00:08:36.511Z,3.50
2023-04-27T00:11:03.093Z,3.17
2023-04-27T00:13:29.530Z,3.55
2023-04-27T00:15:56.236Z,3.30
2023-04-27T00:18:22.698Z,3.50
2023-04-27T00:20:49.841Z,3.17
2023-04-27T00:23:16.516Z,3.00
2023-04-27T00:25:43.008Z,3.63
2023-04-27T00:28:09.619Z,3.90
2023-04-27T00:30:36.242Z,3.30
2023-04-27T00:33:02.782Z,3.72
2023-04-27T00:35:29.224Z,3.15
2023-04-27T00:37:55.746Z,3.17
2023-04-27T00:40:22.150Z,3.50
2023-04-27T00:42:48.573Z,3.28
2023-04-27T00:45:15.077Z,3.70
2023-04-27T00:47:42.215Z,3.40
2023-04-27T00:50:10.515Z,3.05
2023-04-27T00:52:37.523Z,3.40
2023-04-27T00:55:05.122Z,3.40
2023-04-27T00:57:33.291Z,3.08
2023-04-27T01:00:00.658Z,3.03
2023-04-27T01:02:27.835Z,3.63
2023-04-27T01:04:55.744Z,3.03
2023-04-27T01:07:25.785Z,3.70
2023-04-27T01:09:52.548Z,3.30
2023-04-27T01:12:19.064Z,3.83
2023-04-27T01:14:45.763Z,3.42
2023-04-27T01:17:14.058Z,3.13
2023-04-27T01:19:41.248Z,3.20
2023-04-27T01:22:07.796Z,2.88
2023-04-27T01:24:34.257Z,3.70
2023-04-27T01:27:01.751Z,3.20
2023-04-27T01:29:28.412Z,3.65
2023-04-27T01:31:54.851Z,3.45
2023-04-27T01:34:21.301Z,3.00
2023-04-27T01:36:47.963Z,3.28
2023-04-27T01:39:14.674Z,3.22
2023-04-27T01:41:41.850Z,3.20
2023-04-27T01:44:08.343Z,3.35
2023-04-27T01:46:34.849Z,3.90
2023-04-27T01:49:01.504Z,4.13
2023-04-27T01:51:27.987Z,3.65
2023-04-27T01:53:54.372Z,3.15
2023-04-27T01:56:20.867Z,3.45
2023-04-27T01:58:47.397Z,3.17
2023-04-27T02:01:13.844Z,3.63
2023-04-27T02:03:40.612Z,3.08
2023-04-27T02:06:07.517Z,3.50
2023-04-27T02:08:34.601Z,3.08
2023-04-27T02:11:01.017Z,3.70
2023-04-27T02:13:27.433Z,3.20
2023-04-27T02:15:55.923Z,3.63
2023-04-27T02:18:22.398Z,3.67
2023-04-27T02:20:49.145Z,3.35
2023-04-27T02:23:15.661Z,3.83
2023-04-27T02:25:46.580Z,3.85
2023-04-27T02:28:14.137Z,3.72
2023-04-27T02:30:41.121Z,3.33
2023-04-27T02:33:07.787Z,3.72
2023-04-27T02:35:34.490Z,3.35
2023-04-27T02:38:01.178Z,3.45
2023-04-27T02:40:27.742Z,3.90
2023-04-27T02:42:54.421Z,3.65
2023-04-27T02:45:21.158Z,3.72
2023-04-27T02:47:47.900Z,3.65
2023-04-27T02:50:14.374Z,3.60
2023-04-27T02:52:40.912Z,3.70
2023-04-27T02:55:07.752Z,4.15
2023-04-27T02:57:34.288Z,3.80
2023-04-27T03:00:00.835Z,3.50
2023-04-27T03:02:28.449Z,4.20
2023-04-27T03:04:55.347Z,3.97
2023-04-27T03:07:22.622Z,3.60
2023-04-27T03:09:49.335Z,4.63
2023-04-27T03:12:15.986Z,3.85
2023-04-27T03:14:42.585Z,4.15
2023-04-27T03:17:09.140Z,3.72
2023-04-27T03:19:35.634Z,3.97
2023-04-27T03:22:02.095Z,4.20
2023-04-27T03:24:28.586Z,3.67
2023-04-27T03:26:55.048Z,4.95
2023-04-27T03:29:21.537Z,4.15
2023-04-27T03:31:48.003Z,3.80
2023-04-27T03:34:14.523Z,3.70
2023-04-27T03:36:40.872Z,3.92
2023-04-27T03:39:07.937Z,3.72
2023-04-27T03:41:34.430Z,4.07
2023-04-27T03:44:00.831Z,4.15
2023-04-27T03:46:27.414Z,4.55
2023-04-27T03:48:54.349Z,3.92
2023-04-27T03:51:20.906Z,4.10
2023-04-27T03:53:47.370Z,3.67
2023-04-27T03:56:13.840Z,4.82
2023-04-27T03:58:40.284Z,4.22
2023-04-27T04:01:06.699Z,4.60
2023-04-27T04:03:33.527Z,4.43
2023-04-27T04:06:00.036Z,4.20
2023-04-27T04:08:26.712Z,4.70
2023-04-27T04:10:53.181Z,4.30
2023-04-27T04:13:19.685Z,4.95
2023-04-27T04:15:46.234Z,3.97
2023-04-27T04:18:13.327Z,4.30
2023-04-27T04:20:39.920Z,4.75
2023-04-27T04:23:07.203Z,5.00
2023-04-27T04:25:33.716Z,5.40
2023-04-27T04:28:00.140Z,5.97
2023-04-27T04:30:27.460Z,5.22
2023-04-27T04:32:55.330Z,5.13
2023-04-27T04:35:22.764Z,4.97
2023-04-27T04:37:49.192Z,5.03
2023-04-27T04:40:15.733Z,5.63
2023-04-27T04:42:42.197Z,6.22
2023-04-27T04:45:09.315Z,5.55
2023-04-27T04:47:36.827Z,5.60
2023-04-27T04:50:04.028Z,5.45
2023-04-27T04:52:30.586Z,5.70
2023-04-27T04:54:57.096Z,6.10
2023-04-27T04:57:24.037Z,5.82
2023-04-27T04:59:50.913Z,6.35
2023-04-27T05:02:17.713Z,6.65
2023-04-27T05:04:44.348Z,5.55
2023-04-27T05:07:14.575Z,5.75
2023-04-27T05:09:41.785Z,6.25
2023-04-27T05:12:08.504Z,6.53
2023-04-27T05:14:35.679Z,6.40
2023-04-27T05:17:02.479Z,7.90
2023-04-27T05:19:30.251Z,8.68
2023-04-27T05:21:58.450Z,8.65
2023-04-27T05:24:26.271Z,7.65
2023-04-27T05:26:52.729Z,7.13
2023-04-27T05:29:19.378Z,7.63
2023-04-27T05:31:46.335Z,7.43
2023-04-27T05:34:13.317Z,7.88
2023-04-27T05:36:39.924Z,8.13
2023-04-27T05:39:07.521Z,7.65
2023-04-27T05:41:34.324Z,7.43
2023-04-27T05:44:00.809Z,7.97
2023-04-27T05:46:27.480Z,7.50
2023-04-27T05:48:54.087Z,6.65
2023-04-27T05:51:23.579Z,7.55
2023-04-27T05:53:50.719Z,7.63
2023-04-27T05:56:17.335Z,7.30
2023-04-27T05:58:44.024Z,7.05
2023-04-27T06:01:11.663Z,6.93
2023-04-27T06:03:38.668Z,6.15
2023-04-27T06:06:05.892Z,6.05
2023-04-27T06:08:32.476Z,6.72
2023-04-27T06:11:01.764Z,6.93
2023-04-27T06:13:28.167Z,6.15
2023-04-27T06:15:54.810Z,5.40
2023-04-27T06:18:21.340Z,5.47
2023-04-27T06:20:48.296Z,6.15
2023-04-27T06:23:14.977Z,5.72
2023-04-27T06:25:41.602Z,5.13
2023-04-27T06:28:08.506Z,4.85
2023-04-27T06:30:36.431Z,5.60
2023-04-27T06:33:03.999Z,4.30
2023-04-27T06:35:30.718Z,4.78
2023-04-27T06:37:58.946Z,4.43
2023-04-27T06:40:26.488Z,4.80
2023-04-27T06:42:53.148Z,5.03
2023-04-27T06:45:19.772Z,4.97
2023-04-27T06:47:46.532Z,4.05
2023-04-27T06:50:13.972Z,4.60
2023-04-27T06:52:40.514Z,3.70
2023-04-27T06:55:07.315Z,3.42
2023-04-27T06:57:34.006Z,3.65
2023-04-27T07:00:00.611Z,3.60
2023-04-27T07:02:27.666Z,3.47
2023-04-27T07:04:54.129Z,3.15
2023-04-27T07:07:21.067Z,2.90
2023-04-27T07:09:47.496Z,2.60
2023-04-27T07:12:14.312Z,2.92
2023-04-27T07:14:40.792Z,2.65
2023-04-27T07:17:07.234Z,2.95
2023-04-27T07:19:33.980Z,2.83
2023-04-27T07:22:00.448Z,2.90
2023-04-27T07:24:26.875Z,2.38
2023-04-27T07:26:53.302Z,3.15
2023-04-27T07:29:27.161Z,2.30
2023-04-27T07:31:55.989Z,2.70
2023-04-27T07:34:23.109Z,2.78
2023-04-27T07:36:49.617Z,2.70
2023-04-27T07:39:16.199Z,2.75
2023-04-27T07:41:42.935Z,3.03
2023-04-27T07:44:09.326Z,3.05
2023-04-27T07:46:35.719Z,3.97
2023-04-27T07:49:03.205Z,3.78
2023-04-27T07:51:29.887Z,3.13
2023-04-27T07:53:56.663Z,3.55
2023-04-27T07:56:23.584Z,2.88
2023-04-27T07:58:50.278Z,3.55
2023-04-27T08:01:18.975Z,2.42
2023-04-27T08:03:47.053Z,2.80
2023-04-27T08:06:14.065Z,3.22
2023-04-27T08:08:41.225Z,2.42
2023-04-27T08:11:12.352Z,2.78
2023-04-27T08:13:39.377Z,3.08
2023-04-27T08:16:06.248Z,2.72
2023-04-27T08:18:33.025Z,3.08
2023-04-27T08:21:00.227Z,2.70
2023-04-27T08:23:31.222Z,2.65
2023-04-27T08:25:57.733Z,2.63
2023-04-27T08:28:28.504Z,2.53
2023-04-27T08:30:55.376Z,2.40
2023-04-27T08:33:22.745Z,2.25
2023-04-27T08:35:49.236Z,2.55
2023-04-27T08:38:16.076Z,2.67
2023-04-27T08:40:43.833Z,2.30
2023-04-27T08:43:10.524Z,2.23
2023-04-27T08:45:37.088Z,2.65
2023-04-27T08:48:03.816Z,2.25
2023-04-27T08:50:31.495Z,2.60
2023-04-27T08:52:58.025Z,2.40
2023-04-27T08:55:24.669Z,2.38
2023-04-27T08:57:58.054Z,2.42
2023-04-27T09:00:26.277Z,2.20
2023-04-27T09:02:53.127Z,2.33
2023-04-27T09:05:22.078Z,2.30
2023-04-27T09:08:05.444Z,2.60
2023-04-27T09:10:50.368Z,3.72
2023-04-27T09:13:17.436Z,2.50
2023-04-27T09:15:48.276Z,2.60
2023-04-27T09:18:19.725Z,2.30
2023-04-27T09:20:47.379Z,2.10
2023-04-27T09:23:35.496Z,1.92
2023-04-27T09:26:09.346Z,2.67
2023-04-27T09:28:39.708Z,2.53
2023-04-27T09:31:09.614Z,2.83
2023-04-27T09:33:36.551Z,2.95
2023-04-27T09:36:06.941Z,2.47
2023-04-27T09:38:34.178Z,2.92
2023-04-27T09:41:01.502Z,2.45
2023-04-27T09:43:29.633Z,2.80
2023-04-27T09:45:56.966Z,2.33
2023-04-27T09:48:24.943Z,3.65
2023-04-27T09:50:52.769Z,2.88
2023-04-27T09:53:21.782Z,2.95
2023-04-27T09:56:22.255Z,2.47
2023-04-27T09:59:03.957Z,2.63
2023-04-27T10:01:46.355Z,2.58
2023-04-27T10:04:25.663Z,2.75
2023-04-27T10:06:57.955Z,2.30
2023-04-27T10:09:25.530Z,2.33
2023-04-27T10:11:53.951Z,2.30
2023-04-27T10:14:24.401Z,2.42
2023-04-27T10:16:58.375Z,2.70
2023-04-27T10:19:25.555Z,2.85
2023-04-27T10:22:08.214Z,2.38
2023-04-27T10:24:39.439Z,2.88
2023-04-27T10:27:08.042Z,2.30
2023-04-27T10:29:39.184Z,2.20
2023-04-27T10:32:10.119Z,2.60
2023-04-27T10:34:38.348Z,2.28
2023-04-27T10:37:07.653Z,2.40
2023-04-27T10:39:48.616Z,2.45
2023-04-27T10:42:28.946Z,2.40
2023-04-27T10:44:59.048Z,2.28
2023-04-27T10:47:43.027Z,3.03
2023-04-27T10:50:14.318Z,2.67
2023-04-27T10:52:44.469Z,2.45
2023-04-27T10:55:18.795Z,2.42
2023-04-27T10:57:50.213Z,2.20
2023-04-27T11:00:38.845Z,3.17
2023-04-27T11:03:18.492Z,2.75
2023-04-27T11:05:47.299Z,3.50
2023-04-27T11:08:16.265Z,3.05
2023-04-27T11:10:51.008Z,3.45
2023-04-27T11:13:22.294Z,3.00
2023-04-27T11:15:54.770Z,2.67
2023-04-27T11:18:23.746Z,3.15
2023-04-27T11:20:52.427Z,3.03
2023-04-27T11:23:30.225Z,3.00
2023-04-27T11:25:56.914Z,2.90
2023-04-27T11:28:24.426Z,3.00
2023-04-27T11:31:00.675Z,3.42
2023-04-27T11:33:28.237Z,2.97
2023-04-27T11:35:56.518Z,3.30
2023-04-27T11:41:07.419Z,3.40
2023-04-27T11:43:34.897Z,3.40
2023-04-27T11:46:06.012Z,2.90
2023-04-27T11:48:32.569Z,2.90
2023-04-27T11:51:00.501Z,3.30
2023-04-27T11:53:38.382Z,3.30
2023-04-27T11:56:07.891Z,3.63
2023-04-27T11:58:36.196Z,3.50
2023-04-27T12:03:31.128Z,3.55
2023-04-27T12:06:07.224Z,3.40
2023-04-27T12:08:43.027Z,3.47
2023-04-27T12:11:09.449Z,3.08
2023-04-27T12:13:35.973Z,3.50
2023-04-27T12:16:02.519Z,3.22
2023-04-27T12:18:28.947Z,3.30
2023-04-27T12:20:55.378Z,3.42
2023-04-27T12:23:21.828Z,4.20
2023-04-27T12:25:48.398Z,3.47
2023-04-27T12:28:18.955Z,3.35
2023-04-27T12:30:45.447Z,3.28
2023-04-27T12:33:12.072Z,3.17
2023-04-27T12:35:38.638Z,2.80
2023-04-27T12:38:05.128Z,2.90
2023-04-27T12:40:31.653Z,2.90
2023-04-27T12:43:00.494Z,2.80
2023-04-27T12:45:27.695Z,2.92
2023-04-27T12:48:02.780Z,3.42
2023-04-27T12:50:33.502Z,2.90
2023-04-27T12:53:00.196Z,2.67
2023-04-27T12:55:33.535Z,2.85
2023-04-27T12:58:01.244Z,2.95
2023-04-27T13:00:29.374Z,3.38
2023-04-27T13:02:56.589Z,3.00
2023-04-27T13:05:23.435Z,3.08
2023-04-27T13:07:49.852Z,3.03
2023-04-27T13:10:16.363Z,2.58
2023-04-27T13:12:42.980Z,3.28
2023-04-27T13:15:10.169Z,3.63
2023-04-27T13:17:36.956Z,3.67
2023-04-27T13:20:03.711Z,4.00
2023-04-27T13:22:30.319Z,3.67
2023-04-27T13:24:56.762Z,2.97
2023-04-27T13:27:25.407Z,3.13
2023-04-27T13:29:51.850Z,2.85
2023-04-27T13:32:18.664Z,3.78
2023-04-27T13:34:45.414Z,3.13
2023-04-27T13:37:11.864Z,3.35
2023-04-27T13:39:38.366Z,3.15
2023-04-27T13:42:04.882Z,3.20
2023-04-27T13:44:31.909Z,3.20
2023-04-27T13:46:58.640Z,3.13
2023-04-27T13:49:25.929Z,2.97
2023-04-27T13:51:52.567Z,3.03
2023-04-27T13:54:19.725Z,3.20
2023-04-27T13:56:46.241Z,3.08
2023-04-27T13:59:12.841Z,3.28
2023-04-27T14:01:40.136Z,3.58
2023-04-27T14:04:06.785Z,3.95
2023-04-27T14:06:33.366Z,3.17
2023-04-27T14:08:59.731Z,3.63
2023-04-27T14:11:26.275Z,3.75
2023-04-27T14:13:52.850Z,3.13
2023-04-27T14:16:19.356Z,3.47
2023-04-27T14:18:46.084Z,3.40
2023-04-27T14:21:12.517Z,3.03
2023-04-27T14:23:39.014Z,3.28
2023-04-27T14:26:05.860Z,3.33
2023-04-27T14:28:32.364Z,3.20
2023-04-27T14:30:58.751Z,2.65
2023-04-27T14:33:25.440Z,3.33
2023-04-27T14:35:51.910Z,3.05
2023-04-27T14:38:18.343Z,3.10
2023-04-27T14:40:44.848Z,2.92
2023-04-27T14:43:11.373Z,2.95
2023-04-27T14:45:50.397Z,3.13
2023-04-27T14:48:19.242Z,3.35
2023-04-27T14:50:45.832Z,3.30
2023-04-27T14:53:12.350Z,2.83
2023-04-27T14:55:38.973Z,2.88
2023-04-27T14:58:05.705Z,3.30
2023-04-27T15:00:32.261Z,3.30
2023-04-27T15:02:58.859Z,4.00
2023-04-27T15:05:25.632Z,3.20
2023-04-27T15:07:52.040Z,2.80
2023-04-27T15:10:18.787Z,3.50
2023-04-27T15:15:13.457Z,3.35
2023-04-27T15:17:40.099Z,3.42
2023-04-27T15:20:07.998Z,3.78
2023-04-27T15:22:34.533Z,2.88
2023-04-27T15:25:01.268Z,3.50
2023-04-27T15:27:27.844Z,3.35
2023-04-27T15:29:54.857Z,3.00
2023-04-27T15:32:24.501Z,2.90
2023-04-27T15:34:51.836Z,3.13
2023-04-27T15:37:18.436Z,3.83
2023-04-27T15:39:44.976Z,3.67
2023-04-27T15:42:11.418Z,3.67
2023-04-27T15:44:37.897Z,2.97
2023-04-27T15:47:04.943Z,3.28
2023-04-27T15:49:31.781Z,3.60
2023-04-27T15:52:00.995Z,3.33
2023-04-27T15:54:27.669Z,3.45
2023-04-27T15:56:54.243Z,3.15
2023-04-27T15:59:23.317Z,2.97
2023-04-27T16:01:49.884Z,3.22
2023-04-27T16:04:16.486Z,3.22
2023-04-27T16:06:43.096Z,2.70
2023-04-27T16:09:10.710Z,3.13
2023-04-27T16:11:37.223Z,3.15
2023-04-27T16:14:03.804Z,3.22
2023-04-27T16:16:30.455Z,3.38
2023-04-27T16:19:00.561Z,4.65
2023-04-27T16:21:28.057Z,3.53
2023-04-27T16:23:54.748Z,3.17
2023-04-27T16:26:21.203Z,3.55
2023-04-27T16:28:48.141Z,3.30
2023-04-27T16:31:14.885Z,3.50
2023-04-27T16:33:41.912Z,3.45
2023-04-27T16:36:10.981Z,3.65
2023-04-27T16:38:39.110Z,3.47
2023-04-27T16:43:33.297Z,3.60
2023-04-27T16:45:59.847Z,3.88
2023-04-27T16:48:27.355Z,3.70
2023-04-27T16:50:55.212Z,3.60
2023-04-27T16:53:22.517Z,3.80
2023-04-27T16:55:48.978Z,3.58
2023-04-27T16:58:15.543Z,3.50
2023-04-27T17:00:42.117Z,4.38
2023-04-27T17:03:09.759Z,3.58
2023-04-27T17:05:37.039Z,4.03
2023-04-27T17:08:05.439Z,3.50
2023-04-27T17:10:32.262Z,3.80
2023-04-27T17:12:58.863Z,3.80
2023-04-27T17:15:26.798Z,3.75
2023-04-27T17:17:53.320Z,3.17
2023-04-27T17:20:19.888Z,3.38
2023-04-27T17:22:46.466Z,3.53
2023-04-27T17:25:13.095Z,3.95
2023-04-27T17:27:39.573Z,3.80
2023-04-27T17:30:08.256Z,2.88
2023-04-27T17:32:34.978Z,3.67
2023-04-27T17:35:01.499Z,3.00
2023-04-27T17:37:28.144Z,3.85
2023-04-27T17:39:54.653Z,3.58
2023-04-27T17:42:21.081Z,3.92
2023-04-27T17:44:47.768Z,3.63
2023-04-27T17:47:14.695Z,3.95
2023-04-27T17:49:41.141Z,4.10
2023-04-27T17:52:07.695Z,3.63
2023-04-27T17:54:34.070Z,4.45
2023-04-27T17:57:00.591Z,5.57
2023-04-27T17:59:27.792Z,4.13
2023-04-27T18:01:54.262Z,4.07
2023-04-27T18:04:21.450Z,4.15
2023-04-27T18:06:48.141Z,3.80
2023-04-27T18:09:14.781Z,4.15
2023-04-27T18:11:41.488Z,4.28
2023-04-27T18:14:08.187Z,4.00
2023-04-27T18:16:34.663Z,3.50
2023-04-27T18:19:01.192Z,4.13
2023-04-27T18:21:28.893Z,4.10
2023-04-27T18:23:56.509Z,4.10
2023-04-27T18:26:23.116Z,3.93
2023-04-27T18:28:49.543Z,4.10
2023-04-27T18:31:17.450Z,4.45
2023-04-27T18:33:45.379Z,4.45
2023-04-27T18:36:12.013Z,4.10
2023-04-27T18:38:38.646Z,4.28
2023-04-27T18:41:05.099Z,4.63
2023-04-27T18:43:36.661Z,4.13
2023-04-27T18:46:04.031Z,3.85
2023-04-27T18:48:30.593Z,3.90
2023-04-27T18:50:57.080Z,4.15
2023-04-27T18:53:23.588Z,5.72
2023-04-27T18:55:50.026Z,5.18
2023-04-27T18:58:16.559Z,4.38
2023-04-27T19:00:43.022Z,4.20
2023-04-27T19:03:09.670Z,4.05
2023-04-27T19:05:36.589Z,4.20
2023-04-27T19:08:03.464Z,4.43
2023-04-27T19:10:29.966Z,4.10
2023-04-27T19:12:57.053Z,4.70
2023-04-27T19:15:23.687Z,4.32
2023-04-27T19:17:58.535Z,4.63
2023-04-27T19:20:33.588Z,4.32
2023-04-27T19:23:00.158Z,4.57
2023-04-27T19:25:26.913Z,4.45
2023-04-27T19:27:55.882Z,4.25
2023-04-27T19:30:22.410Z,4.32
2023-04-27T19:32:49.017Z,4.47
2023-04-27T19:35:16.039Z,4.40
2023-04-27T19:37:42.498Z,4.32
2023-04-27T19:40:09.619Z,4.53
2023-04-27T19:42:36.171Z,4.35
2023-04-27T19:45:03.981Z,5.03
2023-04-27T19:47:30.868Z,4.32
2023-04-27T19:49:59.057Z,4.40
2023-04-27T19:52:25.922Z,4.70
2023-04-27T19:54:53.516Z,4.75
2023-04-27T19:57:21.595Z,4.22
2023-04-27T19:59:48.151Z,4.18
2023-04-27T20:02:15.358Z,4.50
2023-04-27T20:04:42.422Z,4.45
2023-04-27T20:07:08.993Z,4.20
2023-04-27T20:09:36.644Z,4.30
2023-04-27T20:12:04.200Z,4.43
2023-04-27T20:14:33.572Z,4.63
2023-04-27T20:17:00.238Z,5.18
2023-04-27T20:19:26.833Z,4.13
2023-04-27T20:21:53.313Z,5.10
2023-04-27T20:24:19.798Z,4.85
2023-04-27T20:26:46.717Z,5.38
2023-04-27T20:29:13.242Z,3.92
2023-04-27T20:31:39.715Z,4.38
2023-04-27T20:34:06.580Z,4.20
2023-04-27T20:36:33.713Z,4.50
2023-04-27T20:39:05.000Z,4.10
2023-04-27T20:41:33.775Z,4.47
2023-04-27T20:44:00.438Z,4.70
2023-04-27T20:46:27.275Z,4.50
2023-04-27T20:48:54.034Z,4.40
2023-04-27T20:51:20.406Z,4.75
2023-04-27T20:53:47.083Z,3.70
2023-04-27T20:56:13.589Z,4.90
2023-04-27T20:58:40.014Z,4.75
2023-04-27T21:01:06.510Z,4.30
2023-04-27T21:03:33.418Z,5.03
2023-04-27T21:06:00.045Z,5.53
2023-04-27T21:08:27.929Z,4.70
2023-04-27T21:10:54.421Z,5.15
2023-04-27T21:13:21.231Z,4.70
2023-04-27T21:15:47.682Z,4.57
2023-04-27T21:18:23.024Z,4.55
2023-04-27T21:20:55.970Z,4.38
2023-04-27T21:23:22.582Z,5.05
2023-04-27T21:25:49.064Z,5.35
2023-04-27T21:28:15.532Z,5.00
2023-04-27T21:30:42.052Z,4.63
2023-04-27T21:33:08.807Z,4.57
2023-04-27T21:35:35.351Z,4.93
2023-04-27T21:38:01.878Z,5.30
2023-04-27T21:40:28.242Z,5.00
2023-04-27T21:42:55.549Z,4.95
2023-04-27T21:45:22.155Z,5.15
2023-04-27T21:47:48.715Z,4.90
2023-04-27T21:50:16.427Z,5.00
2023-04-27T21:52:42.948Z,5.00
2023-04-27T21:55:09.970Z,5.13
2023-04-27T21:57:36.752Z,4.93
2023-04-27T22:00:08.833Z,5.22
2023-04-27T22:02:35.383Z,5.63
2023-04-27T22:05:02.586Z,5.30
2023-04-27T22:07:29.351Z,5.35
2023-04-27T22:09:55.895Z,5.25
2023-04-27T22:12:22.353Z,4.57
2023-04-27T22:14:48.969Z,5.40
2023-04-27T22:17:15.378Z,5.90
2023-04-27T22:19:42.247Z,5.15
2023-04-27T22:22:09.865Z,5.20
2023-04-27T22:24:36.315Z,5.15
2023-04-27T22:27:03.933Z,5.22
2023-04-27T22:29:30.867Z,5.78
2023-04-27T22:31:57.658Z,5.82
2023-04-27T22:34:24.225Z,5.25
2023-04-27T22:36:51.259Z,4.93
2023-04-27T22:39:17.845Z,5.47
2023-04-27T22:41:46.212Z,5.10
2023-04-27T22:44:12.800Z,5.25
2023-04-27T22:46:39.327Z,5.55
2023-04-27T22:49:05.744Z,5.60
2023-04-27T22:51:32.803Z,5.45
2023-04-27T22:53:59.642Z,5.20
2023-04-27T22:56:26.299Z,6.07
2023-04-27T22:58:52.832Z,5.72
2023-04-27T23:01:19.347Z,5.55
2023-04-27T23:03:45.909Z,5.88
2023-04-27T23:06:14.551Z,6.00
2023-04-27T23:08:47.108Z,5.85
2023-04-27T23:11:15.382Z,5.55
2023-04-27T23:13:41.965Z,5.43
2023-04-27T23:16:09.969Z,5.75
2023-04-27T23:18:36.725Z,5.47
2023-04-27T23:21:03.329Z,5.40
2023-04-27T23:23:29.817Z,5.50
2023-04-27T23:25:56.450Z,5.13
2023-04-27T23:28:22.894Z,5.18
2023-04-27T23:30:54.441Z,5.30
2023-04-27T23:33:22.104Z,5.88
2023-04-27T23:35:48.632Z,5.30
2023-04-27T23:38:15.039Z,5.07
2023-04-27T23:40:41.686Z,5.22
2023-04-27T23:43:08.298Z,5.00
2023-04-27T23:45:34.702Z,4.88
2023-04-27T23:48:01.322Z,5.18
2023-04-27T23:50:27.795Z,4.82
2023-04-27T23:52:54.262Z,5.30
2023-04-27T23:55:21.016Z,5.20
2023-04-27T23:57:47.660Z,4.88
